Terminal Aerodrome Forecast
Issued by NWS

Home | Current Version | Previous Version | Text Only | Print | Product List | Glossary On
Versions: 1 2 3 4 5 6 7 8 9 10 11 12 13 14 15 16
000
FTUS45 KRIW 211138
TAFCPR
TAF
KCPR 211138Z 2112/2212 28007KT P6SM SCT070 BKN140 WS010/22035KT
     FM211500 23014G20KT P6SM SCT060 SCT110
     FM211800 22015G25KT P6SM SCT060 SCT110
     FM212300 01010KT P6SM SCT050 BKN080
     FM220200 04011KT P6SM SCT040 BKN070 WS017/21030KT=

USA.gov is the U.S. government's official web portal to all federal, state and local government web resources and services.